sensor_id;sensor_type;location;lat;lon;timestamp;P1;durP1;ratioP1;P2;durP2;ratioP2
22040;SDS011;11184;52.444;13.578;2023-11-22T00:01:23;9.27;;;8.00;;
22040;SDS011;11184;52.444;13.578;2023-11-22T00:04:09;9.02;;;7.68;;
22040;SDS011;11184;52.444;13.578;2023-11-22T00:06:54;8.27;;;7.40;;
22040;SDS011;11184;52.444;13.578;2023-11-22T00:09:38;9.73;;;8.82;;
22040;SDS011;11184;52.444;13.578;2023-11-22T00:12:23;9.52;;;6.68;;
22040;SDS011;11184;52.444;13.578;2023-11-22T00:15:08;10.15;;;8.40;;
22040;SDS011;11184;52.444;13.578;2023-11-22T00:17:55;15.73;;;9.48;;
22040;SDS011;11184;52.444;13.578;2023-11-22T00:20:41;17.00;;;7.65;;
22040;SDS011;11184;52.444;13.578;2023-11-22T00:23:26;8.75;;;7.65;;
22040;SDS011;11184;52.444;13.578;2023-11-22T00:26:13;23.13;;;10.40;;
22040;SDS011;11184;52.444;13.578;2023-11-22T00:28:58;9.93;;;6.90;;
22040;SDS011;11184;52.444;13.578;2023-11-22T00:31:43;9.45;;;8.25;;
22040;SDS011;11184;52.444;13.578;2023-11-22T00:34:28;8.90;;;8.10;;
22040;SDS011;11184;52.444;13.578;2023-11-22T00:37:13;9.82;;;8.80;;
22040;SDS011;11184;52.444;13.578;2023-11-22T00:39:57;8.43;;;7.55;;
22040;SDS011;11184;52.444;13.578;2023-11-22T00:42:43;8.43;;;7.57;;
22040;SDS011;11184;52.444;13.578;2023-11-22T00:45:28;13.45;;;7.47;;
22040;SDS011;11184;52.444;13.578;2023-11-22T00:48:13;8.65;;;7.93;;
22040;SDS011;11184;52.444;13.578;2023-11-22T00:50:58;9.15;;;6.82;;
22040;SDS011;11184;52.444;13.578;2023-11-22T00:53:42;7.93;;;6.68;;
22040;SDS011;11184;52.444;13.578;2023-11-22T00:56:27;11.80;;;7.53;;
22040;SDS011;11184;52.444;13.578;2023-11-22T00:59:12;9.68;;;8.35;;
22040;SDS011;11184;52.444;13.578;2023-11-22T01:01:58;14.70;;;7.68;;
22040;SDS011;11184;52.444;13.578;2023-11-22T01:04:42;7.68;;;6.88;;
22040;SDS011;11184;52.444;13.578;2023-11-22T01:07:27;12.82;;;7.18;;
22040;SDS011;11184;52.444;13.578;2023-11-22T01:10:13;10.25;;;6.95;;
22040;SDS011;11184;52.444;13.578;2023-11-22T01:12:58;9.35;;;7.07;;
22040;SDS011;11184;52.444;13.578;2023-11-22T01:15:43;8.02;;;7.22;;
22040;SDS011;11184;52.444;13.578;2023-11-22T01:18:28;10.00;;;8.38;;
22040;SDS011;11184;52.444;13.578;2023-11-22T01:21:12;10.80;;;7.40;;
22040;SDS011;11184;52.444;13.578;2023-11-22T01:23:57;9.00;;;7.90;;
22040;SDS011;11184;52.444;13.578;2023-11-22T01:26:43;7.60;;;6.90;;
22040;SDS011;11184;52.444;13.578;2023-11-22T01:29:28;9.52;;;7.00;;
22040;SDS011;11184;52.444;13.578;2023-11-22T01:32:12;10.63;;;7.88;;
22040;SDS011;11184;52.444;13.578;2023-11-22T01:34:57;9.25;;;6.93;;
22040;SDS011;11184;52.444;13.578;2023-11-22T01:37:43;9.20;;;8.20;;
22040;SDS011;11184;52.444;13.578;2023-11-22T01:40:27;8.68;;;7.35;;
22040;SDS011;11184;52.444;13.578;2023-11-22T01:43:17;9.05;;;8.02;;
22040;SDS011;11184;52.444;13.578;2023-11-22T01:46:02;10.55;;;7.80;;
22040;SDS011;11184;52.444;13.578;2023-11-22T01:48:47;9.73;;;7.43;;
22040;SDS011;11184;52.444;13.578;2023-11-22T01:51:31;10.35;;;8.45;;
22040;SDS011;11184;52.444;13.578;2023-11-22T01:54:16;11.32;;;8.02;;
22040;SDS011;11184;52.444;13.578;2023-11-22T01:57:03;10.32;;;8.93;;
22040;SDS011;11184;52.444;13.578;2023-11-22T01:59:51;9.48;;;7.95;;
22040;SDS011;11184;52.444;13.578;2023-11-22T02:02:36;8.63;;;6.78;;
22040;SDS011;11184;52.444;13.578;2023-11-22T02:05:20;8.77;;;7.85;;
22040;SDS011;11184;52.444;13.578;2023-11-22T02:08:05;8.80;;;7.90;;
22040;SDS011;11184;52.444;13.578;2023-11-22T02:10:59;9.50;;;7.93;;
22040;SDS011;11184;52.444;13.578;2023-11-22T02:13:43;8.85;;;7.95;;
22040;SDS011;11184;52.444;13.578;2023-11-22T02:16:28;7.88;;;7.07;;
22040;SDS011;11184;52.444;13.578;2023-11-22T02:19:14;10.30;;;8.63;;
22040;SDS011;11184;52.444;13.578;2023-11-22T02:21:59;9.88;;;7.93;;
22040;SDS011;11184;52.444;13.578;2023-11-22T02:24:46;9.52;;;7.38;;
22040;SDS011;11184;52.444;13.578;2023-11-22T02:27:30;10.13;;;7.50;;
22040;SDS011;11184;52.444;13.578;2023-11-22T02:30:15;11.52;;;7.75;;
22040;SDS011;11184;52.444;13.578;2023-11-22T02:32:59;8.02;;;7.22;;
22040;SDS011;11184;52.444;13.578;2023-11-22T02:35:44;8.80;;;7.93;;
22040;SDS011;11184;52.444;13.578;2023-11-22T02:38:29;10.45;;;7.55;;
22040;SDS011;11184;52.444;13.578;2023-11-22T02:41:14;7.05;;;5.90;;
22040;SDS011;11184;52.444;13.578;2023-11-22T02:43:59;8.10;;;6.88;;
22040;SDS011;11184;52.444;13.578;2023-11-22T02:46:43;7.95;;;6.75;;
22040;SDS011;11184;52.444;13.578;2023-11-22T02:49:28;6.60;;;5.65;;
22040;SDS011;11184;52.444;13.578;2023-11-22T02:52:13;7.55;;;5.82;;
22040;SDS011;11184;52.444;13.578;2023-11-22T02:54:58;7.95;;;6.75;;
22040;SDS011;11184;52.444;13.578;2023-11-22T02:57:43;6.50;;;5.85;;
22040;SDS011;11184;52.444;13.578;2023-11-22T03:00:28;8.23;;;6.53;;
22040;SDS011;11184;52.444;13.578;2023-11-22T03:03:13;7.15;;;6.30;;
22040;SDS011;11184;52.444;13.578;2023-11-22T03:05:57;7.57;;;6.40;;
22040;SDS011;11184;52.444;13.578;2023-11-22T03:08:42;6.90;;;5.93;;
22040;SDS011;11184;52.444;13.578;2023-11-22T03:11:28;7.90;;;5.65;;
22040;SDS011;11184;52.444;13.578;2023-11-22T03:14:12;7.50;;;6.72;;
22040;SDS011;11184;52.444;13.578;2023-11-22T03:16:57;7.15;;;6.45;;
22040;SDS011;11184;52.444;13.578;2023-11-22T03:19:42;7.53;;;6.13;;
22040;SDS011;11184;52.444;13.578;2023-11-22T03:22:28;9.02;;;6.80;;
22040;SDS011;11184;52.444;13.578;2023-11-22T03:25:13;6.07;;;5.47;;
22040;SDS011;11184;52.444;13.578;2023-11-22T03:27:58;6.32;;;5.78;;
22040;SDS011;11184;52.444;13.578;2023-11-22T03:30:42;5.72;;;5.22;;
22040;SDS011;11184;52.444;13.578;2023-11-22T03:33:27;7.57;;;6.75;;
22040;SDS011;11184;52.444;13.578;2023-11-22T03:36:11;8.25;;;4.75;;
22040;SDS011;11184;52.444;13.578;2023-11-22T03:38:56;7.50;;;6.78;;
22040;SDS011;11184;52.444;13.578;2023-11-22T03:41:40;6.80;;;5.78;;
22040;SDS011;11184;52.444;13.578;2023-11-22T03:44:26;8.00;;;5.47;;
22040;SDS011;11184;52.444;13.578;2023-11-22T03:47:10;7.80;;;7.05;;
22040;SDS011;11184;52.444;13.578;2023-11-22T03:49:56;18.63;;;7.40;;
22040;SDS011;11184;52.444;13.578;2023-11-22T03:52:41;7.10;;;5.95;;
22040;SDS011;11184;52.444;13.578;2023-11-22T03:55:25;8.02;;;7.18;;
22040;SDS011;11184;52.444;13.578;2023-11-22T03:58:10;7.20;;;5.72;;
22040;SDS011;11184;52.444;13.578;2023-11-22T04:00:55;6.35;;;5.50;;
22040;SDS011;11184;52.444;13.578;2023-11-22T04:03:40;6.95;;;6.25;;
22040;SDS011;11184;52.444;13.578;2023-11-22T04:06:25;8.38;;;7.53;;
22040;SDS011;11184;52.444;13.578;2023-11-22T04:09:09;9.25;;;6.20;;
22040;SDS011;11184;52.444;13.578;2023-11-22T04:11:57;7.75;;;7.05;;
22040;SDS011;11184;52.444;13.578;2023-11-22T04:14:42;7.95;;;7.15;;
22040;SDS011;11184;52.444;13.578;2023-11-22T04:17:27;8.98;;;6.97;;
22040;SDS011;11184;52.444;13.578;2023-11-22T04:20:12;7.40;;;6.65;;
22040;SDS011;11184;52.444;13.578;2023-11-22T04:22:58;8.40;;;7.13;;
22040;SDS011;11184;52.444;13.578;2023-11-22T04:25:43;8.13;;;6.70;;
22040;SDS011;11184;52.444;13.578;2023-11-22T04:28:28;7.68;;;6.88;;
22040;SDS011;11184;52.444;13.578;2023-11-22T04:31:15;7.43;;;6.75;;
22040;SDS011;11184;52.444;13.578;2023-11-22T04:34:01;7.97;;;7.13;;
22040;SDS011;11184;52.444;13.578;2023-11-22T04:36:45;8.02;;;7.32;;
22040;SDS011;11184;52.444;13.578;2023-11-22T04:39:30;7.97;;;7.03;;
22040;SDS011;11184;52.444;13.578;2023-11-22T04:42:15;9.02;;;7.20;;
22040;SDS011;11184;52.444;13.578;2023-11-22T04:44:59;7.88;;;6.88;;
22040;SDS011;11184;52.444;13.578;2023-11-22T04:47:44;7.93;;;6.60;;
22040;SDS011;11184;52.444;13.578;2023-11-22T04:50:29;8.20;;;7.03;;
22040;SDS011;11184;52.444;13.578;2023-11-22T04:53:13;9.75;;;7.32;;
22040;SDS011;11184;52.444;13.578;2023-11-22T04:55:59;12.57;;;8.25;;
22040;SDS011;11184;52.444;13.578;2023-11-22T04:58:49;16.42;;;11.27;;
22040;SDS011;11184;52.444;13.578;2023-11-22T05:01:33;9.93;;;8.18;;
22040;SDS011;11184;52.444;13.578;2023-11-22T05:04:18;8.65;;;7.75;;
22040;SDS011;11184;52.444;13.578;2023-11-22T05:07:02;11.18;;;9.80;;
22040;SDS011;11184;52.444;13.578;2023-11-22T05:09:47;8.75;;;7.80;;
22040;SDS011;11184;52.444;13.578;2023-11-22T05:12:32;9.52;;;8.35;;
22040;SDS011;11184;52.444;13.578;2023-11-22T05:15:16;10.65;;;9.30;;
22040;SDS011;11184;52.444;13.578;2023-11-22T05:18:01;12.18;;;9.85;;
22040;SDS011;11184;52.444;13.578;2023-11-22T05:20:46;9.85;;;8.55;;
22040;SDS011;11184;52.444;13.578;2023-11-22T05:23:32;8.77;;;7.88;;
22040;SDS011;11184;52.444;13.578;2023-11-22T05:26:16;10.10;;;9.07;;
22040;SDS011;11184;52.444;13.578;2023-11-22T05:29:01;10.48;;;9.32;;
22040;SDS011;11184;52.444;13.578;2023-11-22T05:31:48;10.85;;;8.98;;
22040;SDS011;11184;52.444;13.578;2023-11-22T05:34:33;10.07;;;8.25;;
22040;SDS011;11184;52.444;13.578;2023-11-22T05:37:18;8.75;;;7.97;;
22040;SDS011;11184;52.444;13.578;2023-11-22T05:40:04;9.07;;;7.88;;
22040;SDS011;11184;52.444;13.578;2023-11-22T05:42:48;12.23;;;7.78;;
22040;SDS011;11184;52.444;13.578;2023-11-22T05:45:33;9.35;;;8.45;;
22040;SDS011;11184;52.444;13.578;2023-11-22T05:48:18;9.20;;;8.32;;
22040;SDS011;11184;52.444;13.578;2023-11-22T05:51:03;10.10;;;9.07;;
22040;SDS011;11184;52.444;13.578;2023-11-22T05:53:48;12.20;;;8.70;;
22040;SDS011;11184;52.444;13.578;2023-11-22T05:56:33;11.27;;;9.30;;
22040;SDS011;11184;52.444;13.578;2023-11-22T05:59:17;10.23;;;9.15;;
22040;SDS011;11184;52.444;13.578;2023-11-22T06:02:02;10.23;;;8.07;;
22040;SDS011;11184;52.444;13.578;2023-11-22T06:04:47;10.15;;;9.15;;
22040;SDS011;11184;52.444;13.578;2023-11-22T06:07:31;10.90;;;9.18;;
22040;SDS011;11184;52.444;13.578;2023-11-22T06:10:16;13.50;;;9.00;;
22040;SDS011;11184;52.444;13.578;2023-11-22T06:13:01;11.02;;;9.27;;
22040;SDS011;11184;52.444;13.578;2023-11-22T06:15:46;10.23;;;8.75;;
22040;SDS011;11184;52.444;13.578;2023-11-22T06:18:30;13.98;;;9.18;;
22040;SDS011;11184;52.444;13.578;2023-11-22T06:21:16;13.52;;;9.05;;
22040;SDS011;11184;52.444;13.578;2023-11-22T06:24:02;10.65;;;9.13;;
22040;SDS011;11184;52.444;13.578;2023-11-22T06:26:49;11.52;;;8.63;;
22040;SDS011;11184;52.444;13.578;2023-11-22T06:29:34;11.00;;;9.50;;
22040;SDS011;11184;52.444;13.578;2023-11-22T06:32:19;9.70;;;8.80;;
22040;SDS011;11184;52.444;13.578;2023-11-22T06:35:03;13.38;;;10.85;;
22040;SDS011;11184;52.444;13.578;2023-11-22T06:37:52;10.98;;;9.85;;
22040;SDS011;11184;52.444;13.578;2023-11-22T06:40:37;11.75;;;10.27;;
22040;SDS011;11184;52.444;13.578;2023-11-22T06:43:22;15.45;;;9.25;;
22040;SDS011;11184;52.444;13.578;2023-11-22T06:46:06;13.60;;;9.93;;
22040;SDS011;11184;52.444;13.578;2023-11-22T06:48:51;12.60;;;10.30;;
22040;SDS011;11184;52.444;13.578;2023-11-22T06:51:37;11.88;;;10.05;;
22040;SDS011;11184;52.444;13.578;2023-11-22T06:54:21;11.82;;;10.05;;
22040;SDS011;11184;52.444;13.578;2023-11-22T06:57:06;11.23;;;10.13;;
22040;SDS011;11184;52.444;13.578;2023-11-22T06:59:51;10.93;;;9.73;;
22040;SDS011;11184;52.444;13.578;2023-11-22T07:02:36;10.65;;;9.60;;
22040;SDS011;11184;52.444;13.578;2023-11-22T07:05:21;11.75;;;9.68;;
22040;SDS011;11184;52.444;13.578;2023-11-22T07:08:06;13.05;;;10.50;;
22040;SDS011;11184;52.444;13.578;2023-11-22T07:10:51;10.43;;;9.43;;
22040;SDS011;11184;52.444;13.578;2023-11-22T07:13:36;13.43;;;11.75;;
22040;SDS011;11184;52.444;13.578;2023-11-22T07:16:23;13.25;;;10.77;;
22040;SDS011;11184;52.444;13.578;2023-11-22T07:19:08;12.93;;;9.88;;
22040;SDS011;11184;52.444;13.578;2023-11-22T07:21:52;12.98;;;11.05;;
22040;SDS011;11184;52.444;13.578;2023-11-22T07:24:37;16.73;;;11.27;;
22040;SDS011;11184;52.444;13.578;2023-11-22T07:27:22;13.10;;;11.02;;
22040;SDS011;11184;52.444;13.578;2023-11-22T07:30:09;13.00;;;9.95;;
22040;SDS011;11184;52.444;13.578;2023-11-22T07:32:56;10.20;;;8.95;;
22040;SDS011;11184;52.444;13.578;2023-11-22T07:35:43;11.63;;;9.65;;
22040;SDS011;11184;52.444;13.578;2023-11-22T07:38:27;13.27;;;8.88;;
22040;SDS011;11184;52.444;13.578;2023-11-22T07:41:13;12.93;;;10.55;;
22040;SDS011;11184;52.444;13.578;2023-11-22T07:43:57;12.75;;;9.88;;
22040;SDS011;11184;52.444;13.578;2023-11-22T07:46:42;16.00;;;9.77;;
22040;SDS011;11184;52.444;13.578;2023-11-22T07:49:28;12.23;;;10.73;;
22040;SDS011;11184;52.444;13.578;2023-11-22T07:52:13;12.90;;;10.70;;
22040;SDS011;11184;52.444;13.578;2023-11-22T07:54:58;23.35;;;10.30;;
22040;SDS011;11184;52.444;13.578;2023-11-22T07:57:43;13.77;;;10.70;;
22040;SDS011;11184;52.444;13.578;2023-11-22T08:00:28;14.38;;;9.65;;
22040;SDS011;11184;52.444;13.578;2023-11-22T08:03:13;11.40;;;9.93;;
22040;SDS011;11184;52.444;13.578;2023-11-22T08:06:01;15.35;;;9.18;;
22040;SDS011;11184;52.444;13.578;2023-11-22T08:08:46;10.68;;;9.65;;
22040;SDS011;11184;52.444;13.578;2023-11-22T08:11:31;10.80;;;9.45;;
22040;SDS011;11184;52.444;13.578;2023-11-22T08:14:15;13.93;;;11.68;;
22040;SDS011;11184;52.444;13.578;2023-11-22T08:17:01;11.43;;;9.57;;
22040;SDS011;11184;52.444;13.578;2023-11-22T08:19:47;18.35;;;10.35;;
22040;SDS011;11184;52.444;13.578;2023-11-22T08:22:33;9.55;;;8.75;;
22040;SDS011;11184;52.444;13.578;2023-11-22T08:25:18;9.35;;;8.45;;
22040;SDS011;11184;52.444;13.578;2023-11-22T08:28:03;10.93;;;8.23;;
22040;SDS011;11184;52.444;13.578;2023-11-22T08:30:51;11.77;;;9.82;;
22040;SDS011;11184;52.444;13.578;2023-11-22T08:33:37;16.27;;;10.18;;
22040;SDS011;11184;52.444;13.578;2023-11-22T08:36:21;11.93;;;8.75;;
22040;SDS011;11184;52.444;13.578;2023-11-22T08:39:07;12.15;;;9.82;;
22040;SDS011;11184;52.444;13.578;2023-11-22T08:41:51;9.48;;;8.48;;
22040;SDS011;11184;52.444;13.578;2023-11-22T08:44:36;12.73;;;9.07;;
22040;SDS011;11184;52.444;13.578;2023-11-22T08:47:21;11.43;;;9.93;;
22040;SDS011;11184;52.444;13.578;2023-11-22T08:50:06;12.75;;;8.70;;
22040;SDS011;11184;52.444;13.578;2023-11-22T08:52:51;16.60;;;11.70;;
22040;SDS011;11184;52.444;13.578;2023-11-22T08:55:36;12.52;;;10.20;;
22040;SDS011;11184;52.444;13.578;2023-11-22T08:58:22;12.50;;;10.00;;
22040;SDS011;11184;52.444;13.578;2023-11-22T09:01:06;11.25;;;9.63;;
22040;SDS011;11184;52.444;13.578;2023-11-22T09:03:51;9.73;;;8.77;;
22040;SDS011;11184;52.444;13.578;2023-11-22T09:06:36;10.48;;;9.48;;
22040;SDS011;11184;52.444;13.578;2023-11-22T09:09:20;12.13;;;8.68;;
22040;SDS011;11184;52.444;13.578;2023-11-22T09:12:10;11.23;;;9.35;;
22040;SDS011;11184;52.444;13.578;2023-11-22T09:14:56;12.95;;;7.53;;
22040;SDS011;11184;52.444;13.578;2023-11-22T09:17:42;10.10;;;7.85;;
22040;SDS011;11184;52.444;13.578;2023-11-22T09:20:27;7.97;;;6.57;;
22040;SDS011;11184;52.444;13.578;2023-11-22T09:23:12;9.02;;;6.63;;
22040;SDS011;11184;52.444;13.578;2023-11-22T09:25:58;10.10;;;8.50;;
22040;SDS011;11184;52.444;13.578;2023-11-22T09:28:44;10.50;;;9.13;;
22040;SDS011;11184;52.444;13.578;2023-11-22T09:31:29;8.25;;;7.47;;
22040;SDS011;11184;52.444;13.578;2023-11-22T09:34:14;9.98;;;8.95;;
22040;SDS011;11184;52.444;13.578;2023-11-22T09:36:59;10.32;;;8.85;;
22040;SDS011;11184;52.444;13.578;2023-11-22T09:39:43;7.90;;;7.05;;
22040;SDS011;11184;52.444;13.578;2023-11-22T09:42:28;13.00;;;10.88;;
22040;SDS011;11184;52.444;13.578;2023-11-22T09:45:13;10.00;;;8.43;;
22040;SDS011;11184;52.444;13.578;2023-11-22T09:48:02;12.88;;;8.38;;
22040;SDS011;11184;52.444;13.578;2023-11-22T09:56:35;11.43;;;7.35;;
22040;SDS011;11184;52.444;13.578;2023-11-22T09:59:22;9.60;;;7.97;;
22040;SDS011;11184;52.444;13.578;2023-11-22T10:02:08;10.60;;;8.75;;
22040;SDS011;11184;52.444;13.578;2023-11-22T10:04:54;11.18;;;8.57;;
22040;SDS011;11184;52.444;13.578;2023-11-22T10:07:40;9.52;;;8.52;;
22040;SDS011;11184;52.444;13.578;2023-11-22T10:10:25;10.30;;;8.23;;
22040;SDS011;11184;52.444;13.578;2023-11-22T10:13:10;10.27;;;8.00;;
22040;SDS011;11184;52.444;13.578;2023-11-22T10:15:56;10.32;;;7.15;;
22040;SDS011;11184;52.444;13.578;2023-11-22T10:18:52;14.77;;;8.10;;
22040;SDS011;11184;52.444;13.578;2023-11-22T10:21:37;9.02;;;7.28;;
22040;SDS011;11184;52.444;13.578;2023-11-22T10:24:23;9.02;;;7.63;;
22040;SDS011;11184;52.444;13.578;2023-11-22T10:27:08;9.20;;;8.13;;
22040;SDS011;11184;52.444;13.578;2023-11-22T10:29:55;8.35;;;7.28;;
22040;SDS011;11184;52.444;13.578;2023-11-22T10:32:39;9.70;;;7.03;;
22040;SDS011;11184;52.444;13.578;2023-11-22T10:35:25;8.65;;;7.63;;
22040;SDS011;11184;52.444;13.578;2023-11-22T10:38:09;10.82;;;7.32;;
22040;SDS011;11184;52.444;13.578;2023-11-22T10:40:54;11.90;;;7.88;;
22040;SDS011;11184;52.444;13.578;2023-11-22T10:43:41;9.43;;;6.35;;
22040;SDS011;11184;52.444;13.578;2023-11-22T10:46:29;7.63;;;6.88;;
22040;SDS011;11184;52.444;13.578;2023-11-22T10:49:14;9.48;;;8.00;;
22040;SDS011;11184;52.444;13.578;2023-11-22T10:51:59;7.38;;;6.60;;
22040;SDS011;11184;52.444;13.578;2023-11-22T10:54:44;7.20;;;6.50;;
22040;SDS011;11184;52.444;13.578;2023-11-22T10:57:39;7.93;;;7.15;;
22040;SDS011;11184;52.444;13.578;2023-11-22T11:00:24;6.53;;;5.93;;
22040;SDS011;11184;52.444;13.578;2023-11-22T11:03:13;7.38;;;6.57;;
22040;SDS011;11184;52.444;13.578;2023-11-22T11:05:59;7.10;;;6.00;;
22040;SDS011;11184;52.444;13.578;2023-11-22T11:08:48;8.85;;;7.03;;
22040;SDS011;11184;52.444;13.578;2023-11-22T11:11:34;16.95;;;12.90;;
22040;SDS011;11184;52.444;13.578;2023-11-22T11:14:19;6.35;;;5.80;;
22040;SDS011;11184;52.444;13.578;2023-11-22T11:17:05;9.23;;;5.57;;
22040;SDS011;11184;52.444;13.578;2023-11-22T11:19:50;7.70;;;5.88;;
22040;SDS011;11184;52.444;13.578;2023-11-22T11:22:35;6.85;;;6.15;;
22040;SDS011;11184;52.444;13.578;2023-11-22T11:25:20;7.28;;;6.63;;
22040;SDS011;11184;52.444;13.578;2023-11-22T11:28:05;8.18;;;7.30;;
22040;SDS011;11184;52.444;13.578;2023-11-22T11:30:49;10.40;;;8.05;;
22040;SDS011;11184;52.444;13.578;2023-11-22T11:33:34;7.22;;;6.38;;
22040;SDS011;11184;52.444;13.578;2023-11-22T11:36:27;9.25;;;5.18;;
22040;SDS011;11184;52.444;13.578;2023-11-22T11:39:12;7.22;;;6.53;;
22040;SDS011;11184;52.444;13.578;2023-11-22T11:42:09;8.15;;;6.57;;
22040;SDS011;11184;52.444;13.578;2023-11-22T11:45:04;8.77;;;6.18;;
22040;SDS011;11184;52.444;13.578;2023-11-22T11:47:50;5.82;;;5.18;;
22040;SDS011;11184;52.444;13.578;2023-11-22T11:50:34;5.57;;;5.07;;
22040;SDS011;11184;52.444;13.578;2023-11-22T11:53:19;6.90;;;5.20;;
22040;SDS011;11184;52.444;13.578;2023-11-22T11:56:04;6.05;;;5.35;;
22040;SDS011;11184;52.444;13.578;2023-11-22T11:58:49;11.23;;;4.95;;
22040;SDS011;11184;52.444;13.578;2023-11-22T12:01:34;6.40;;;5.82;;
22040;SDS011;11184;52.444;13.578;2023-11-22T12:04:19;11.15;;;5.47;;
22040;SDS011;11184;52.444;13.578;2023-11-22T12:07:06;8.02;;;5.85;;
22040;SDS011;11184;52.444;13.578;2023-11-22T12:09:52;6.30;;;5.70;;
22040;SDS011;11184;52.444;13.578;2023-11-22T12:12:36;9.40;;;7.22;;
22040;SDS011;11184;52.444;13.578;2023-11-22T12:15:22;7.00;;;6.40;;
22040;SDS011;11184;52.444;13.578;2023-11-22T12:18:07;7.22;;;5.20;;
22040;SDS011;11184;52.444;13.578;2023-11-22T12:20:58;20.38;;;7.60;;
22040;SDS011;11184;52.444;13.578;2023-11-22T12:23:44;6.60;;;5.40;;
22040;SDS011;11184;52.444;13.578;2023-11-22T12:26:29;9.50;;;7.22;;
22040;SDS011;11184;52.444;13.578;2023-11-22T12:29:17;7.32;;;5.68;;
22040;SDS011;11184;52.444;13.578;2023-11-22T12:32:06;7.28;;;5.22;;
22040;SDS011;11184;52.444;13.578;2023-11-22T12:34:51;5.53;;;5.03;;
22040;SDS011;11184;52.444;13.578;2023-11-22T12:37:38;6.22;;;4.80;;
22040;SDS011;11184;52.444;13.578;2023-11-22T12:40:23;5.68;;;3.92;;
22040;SDS011;11184;52.444;13.578;2023-11-22T12:43:07;5.35;;;4.32;;
22040;SDS011;11184;52.444;13.578;2023-11-22T12:45:59;5.57;;;3.92;;
22040;SDS011;11184;52.444;13.578;2023-11-22T12:48:44;5.53;;;4.70;;
22040;SDS011;11184;52.444;13.578;2023-11-22T12:51:29;6.50;;;4.53;;
22040;SDS011;11184;52.444;13.578;2023-11-22T12:54:13;6.55;;;5.03;;
22040;SDS011;11184;52.444;13.578;2023-11-22T12:56:58;7.95;;;4.85;;
22040;SDS011;11184;52.444;13.578;2023-11-22T12:59:42;5.10;;;4.60;;
22040;SDS011;11184;52.444;13.578;2023-11-22T13:02:27;6.18;;;4.68;;
22040;SDS011;11184;52.444;13.578;2023-11-22T13:05:12;7.80;;;5.45;;
22040;SDS011;11184;52.444;13.578;2023-11-22T13:07:59;6.38;;;5.15;;
22040;SDS011;11184;52.444;13.578;2023-11-22T13:10:44;5.38;;;4.70;;
22040;SDS011;11184;52.444;13.578;2023-11-22T13:13:30;5.97;;;5.40;;
22040;SDS011;11184;52.444;13.578;2023-11-22T13:16:15;4.55;;;4.15;;
22040;SDS011;11184;52.444;13.578;2023-11-22T13:19:00;5.97;;;5.38;;
22040;SDS011;11184;52.444;13.578;2023-11-22T13:21:44;7.50;;;5.57;;
22040;SDS011;11184;52.444;13.578;2023-11-22T13:24:31;6.60;;;4.68;;
22040;SDS011;11184;52.444;13.578;2023-11-22T13:27:15;7.05;;;5.72;;
22040;SDS011;11184;52.444;13.578;2023-11-22T13:30:00;5.82;;;5.03;;
22040;SDS011;11184;52.444;13.578;2023-11-22T13:32:45;5.35;;;4.85;;
22040;SDS011;11184;52.444;13.578;2023-11-22T13:35:30;6.38;;;4.32;;
22040;SDS011;11184;52.444;13.578;2023-11-22T13:38:15;16.95;;;12.60;;
22040;SDS011;11184;52.444;13.578;2023-11-22T13:41:00;5.78;;;5.05;;
22040;SDS011;11184;52.444;13.578;2023-11-22T13:43:45;6.78;;;5.93;;
22040;SDS011;11184;52.444;13.578;2023-11-22T13:46:32;6.97;;;6.35;;
22040;SDS011;11184;52.444;13.578;2023-11-22T13:49:16;8.65;;;6.45;;
22040;SDS011;11184;52.444;13.578;2023-11-22T13:52:01;10.55;;;7.35;;
22040;SDS011;11184;52.444;13.578;2023-11-22T13:54:46;6.63;;;6.00;;
22040;SDS011;11184;52.444;13.578;2023-11-22T13:57:30;6.75;;;6.05;;
22040;SDS011;11184;52.444;13.578;2023-11-22T14:00:15;11.45;;;9.02;;
22040;SDS011;11184;52.444;13.578;2023-11-22T14:03:06;8.23;;;7.40;;
22040;SDS011;11184;52.444;13.578;2023-11-22T14:05:50;7.38;;;6.57;;
22040;SDS011;11184;52.444;13.578;2023-11-22T14:08:35;8.50;;;6.20;;
22040;SDS011;11184;52.444;13.578;2023-11-22T14:11:20;9.18;;;6.47;;
22040;SDS011;11184;52.444;13.578;2023-11-22T14:14:05;7.60;;;6.80;;
22040;SDS011;11184;52.444;13.578;2023-11-22T14:16:52;8.02;;;6.95;;
22040;SDS011;11184;52.444;13.578;2023-11-22T14:19:37;8.95;;;7.28;;
22040;SDS011;11184;52.444;13.578;2023-11-22T14:22:21;8.82;;;6.60;;
22040;SDS011;11184;52.444;13.578;2023-11-22T14:25:07;8.68;;;6.68;;
22040;SDS011;11184;52.444;13.578;2023-11-22T14:27:55;16.85;;;12.35;;
22040;SDS011;11184;52.444;13.578;2023-11-22T14:30:40;10.15;;;7.82;;
22040;SDS011;11184;52.444;13.578;2023-11-22T14:33:26;9.40;;;6.97;;
22040;SDS011;11184;52.444;13.578;2023-11-22T14:36:15;8.52;;;7.53;;
22040;SDS011;11184;52.444;13.578;2023-11-22T14:39:00;9.18;;;6.95;;
22040;SDS011;11184;52.444;13.578;2023-11-22T14:41:45;9.93;;;7.80;;
22040;SDS011;11184;52.444;13.578;2023-11-22T14:44:29;7.28;;;6.40;;
22040;SDS011;11184;52.444;13.578;2023-11-22T14:47:14;8.52;;;7.63;;
22040;SDS011;11184;52.444;13.578;2023-11-22T14:50:05;6.53;;;5.90;;
22040;SDS011;11184;52.444;13.578;2023-11-22T14:52:49;10.65;;;6.50;;
22040;SDS011;11184;52.444;13.578;2023-11-22T14:55:34;12.25;;;7.63;;
22040;SDS011;11184;52.444;13.578;2023-11-22T14:58:25;7.72;;;7.03;;
22040;SDS011;11184;52.444;13.578;2023-11-22T15:01:10;8.90;;;7.05;;
22040;SDS011;11184;52.444;13.578;2023-11-22T15:03:54;7.47;;;6.72;;
22040;SDS011;11184;52.444;13.578;2023-11-22T15:06:39;7.22;;;5.38;;
22040;SDS011;11184;52.444;13.578;2023-11-22T15:09:24;9.43;;;6.93;;
22040;SDS011;11184;52.444;13.578;2023-11-22T15:12:10;10.73;;;7.47;;
22040;SDS011;11184;52.444;13.578;2023-11-22T15:14:54;12.48;;;8.05;;
22040;SDS011;11184;52.444;13.578;2023-11-22T15:17:39;8.95;;;6.22;;
22040;SDS011;11184;52.444;13.578;2023-11-22T15:20:24;8.38;;;7.40;;
22040;SDS011;11184;52.444;13.578;2023-11-22T15:23:08;10.48;;;7.35;;
22040;SDS011;11184;52.444;13.578;2023-11-22T15:25:53;8.30;;;7.50;;
22040;SDS011;11184;52.444;13.578;2023-11-22T15:28:37;10.50;;;8.55;;
22040;SDS011;11184;52.444;13.578;2023-11-22T15:31:23;10.82;;;7.60;;
22040;SDS011;11184;52.444;13.578;2023-11-22T15:34:07;10.73;;;7.85;;
22040;SDS011;11184;52.444;13.578;2023-11-22T15:36:52;10.05;;;9.00;;
22040;SDS011;11184;52.444;13.578;2023-11-22T15:39:37;13.68;;;8.48;;
22040;SDS011;11184;52.444;13.578;2023-11-22T15:42:21;10.25;;;7.70;;
22040;SDS011;11184;52.444;13.578;2023-11-22T15:45:06;9.45;;;8.27;;
22040;SDS011;11184;52.444;13.578;2023-11-22T15:47:51;9.90;;;7.85;;
22040;SDS011;11184;52.444;13.578;2023-11-22T15:50:36;10.65;;;7.90;;
22040;SDS011;11184;52.444;13.578;2023-11-22T15:53:21;9.20;;;8.35;;
22040;SDS011;11184;52.444;13.578;2023-11-22T15:56:05;17.20;;;8.30;;
22040;SDS011;11184;52.444;13.578;2023-11-22T15:58:51;11.45;;;8.30;;
22040;SDS011;11184;52.444;13.578;2023-11-22T16:01:38;9.85;;;8.05;;
22040;SDS011;11184;52.444;13.578;2023-11-22T16:04:23;10.27;;;9.25;;
22040;SDS011;11184;52.444;13.578;2023-11-22T16:07:07;11.10;;;8.20;;
22040;SDS011;11184;52.444;13.578;2023-11-22T16:09:52;14.50;;;10.13;;
22040;SDS011;11184;52.444;13.578;2023-11-22T16:12:37;13.25;;;10.75;;
22040;SDS011;11184;52.444;13.578;2023-11-22T16:15:21;11.85;;;10.63;;
22040;SDS011;11184;52.444;13.578;2023-11-22T16:18:06;12.80;;;9.52;;
22040;SDS011;11184;52.444;13.578;2023-11-22T16:20:51;12.88;;;9.35;;